createdAt,value
2022-10-04T00:00:01.203Z,6.70
2022-10-04T00:02:37.597Z,6.60
2022-10-04T00:05:10.055Z,6.60
2022-10-04T00:07:44.162Z,6.60
2022-10-04T00:10:21.671Z,6.60
2022-10-04T00:12:53.586Z,6.60
2022-10-04T00:15:28.205Z,6.60
2022-10-04T00:18:08.051Z,6.50
2022-10-04T00:21:04.954Z,6.60
2022-10-04T00:23:45.109Z,6.50
2022-10-04T00:26:37.955Z,6.50
2022-10-04T00:29:35.684Z,6.50
2022-10-04T00:32:25.578Z,6.50
2022-10-04T00:34:55.198Z,6.40
2022-10-04T00:37:27.147Z,6.40
2022-10-04T00:40:05.156Z,6.40
2022-10-04T00:42:56.855Z,6.30
2022-10-04T00:45:39.009Z,6.30
2022-10-04T00:48:44.829Z,6.30
2022-10-04T00:51:23.052Z,6.30
2022-10-04T00:54:13.497Z,6.30
2022-10-04T00:56:51.757Z,6.30
2022-10-04T00:59:36.540Z,6.30
2022-10-04T01:02:09.690Z,6.30
2022-10-04T01:04:41.750Z,6.30
2022-10-04T01:07:12.631Z,6.30
2022-10-04T01:09:49.760Z,6.20
2022-10-04T01:12:39.361Z,6.20
2022-10-04T01:15:14.391Z,6.20
2022-10-04T01:18:09.445Z,6.20
2022-10-04T01:20:40.976Z,6.20
2022-10-04T01:23:14.600Z,6.20
2022-10-04T01:25:51.170Z,6.20
2022-10-04T01:28:20.835Z,6.20
2022-10-04T01:30:50.150Z,6.20
2022-10-04T01:33:19.241Z,6.20
2022-10-04T01:35:50.491Z,6.10
2022-10-04T01:38:20.315Z,6.10
2022-10-04T01:40:52.836Z,6.10
2022-10-04T01:43:29.188Z,6.10
2022-10-04T01:46:03.023Z,6.00
2022-10-04T01:48:36.329Z,6.00
2022-10-04T01:51:08.853Z,6.00
2022-10-04T01:53:47.060Z,6.00
2022-10-04T01:56:18.635Z,6.00
2022-10-04T01:58:51.247Z,6.00
2022-10-04T02:01:27.841Z,6.00
2022-10-04T02:04:01.185Z,6.10
2022-10-04T02:06:31.112Z,6.10
2022-10-04T02:09:03.187Z,6.10
2022-10-04T02:11:32.370Z,6.20
2022-10-04T02:14:01.880Z,6.20
2022-10-04T02:16:31.165Z,6.20
2022-10-04T02:19:00.689Z,6.20
2022-10-04T02:21:29.480Z,6.10
2022-10-04T02:23:57.946Z,6.10
2022-10-04T02:26:27.428Z,6.10
2022-10-04T02:28:56.075Z,6.10
2022-10-04T02:31:43.200Z,6.10
2022-10-04T02:34:13.481Z,6.10
2022-10-04T02:36:44.765Z,6.10
2022-10-04T02:39:17.608Z,6.10
2022-10-04T02:41:51.341Z,6.00
2022-10-04T02:44:25.365Z,6.00
2022-10-04T02:46:57.392Z,6.00
2022-10-04T02:49:32.100Z,6.00
2022-10-04T02:52:06.860Z,5.90
2022-10-04T02:54:40.774Z,5.90
2022-10-04T02:57:16.303Z,5.90
2022-10-04T02:59:44.305Z,5.90
2022-10-04T03:02:29.614Z,5.90
2022-10-04T03:05:01.660Z,5.90
2022-10-04T03:07:33.753Z,5.90
2022-10-04T03:10:07.103Z,5.90
2022-10-04T03:12:39.126Z,5.80
2022-10-04T03:15:09.845Z,5.80
2022-10-04T03:17:38.679Z,5.80
2022-10-04T03:20:07.586Z,5.80
2022-10-04T03:22:37.632Z,5.80
2022-10-04T03:25:07.098Z,5.80
2022-10-04T03:27:39.231Z,5.80
2022-10-04T03:30:09.204Z,5.80
2022-10-04T03:32:38.667Z,5.80
2022-10-04T03:35:09.432Z,5.80
2022-10-04T03:37:39.418Z,5.80
2022-10-04T03:40:11.281Z,5.80
2022-10-04T03:42:41.760Z,5.80
2022-10-04T03:45:15.898Z,5.80
2022-10-04T03:47:48.509Z,5.80
2022-10-04T03:50:19.661Z,5.80
2022-10-04T03:52:53.910Z,5.70
2022-10-04T03:55:24.742Z,5.80
2022-10-04T03:57:54.037Z,5.90
2022-10-04T04:00:22.155Z,5.90
2022-10-04T04:02:54.501Z,5.90
2022-10-04T04:05:28.615Z,5.90
2022-10-04T04:08:08.475Z,5.90
2022-10-04T04:10:39.746Z,6.00
2022-10-04T04:13:21.628Z,5.90
2022-10-04T04:15:51.060Z,5.90
2022-10-04T04:18:23.868Z,5.90
2022-10-04T04:20:59.027Z,5.80
2022-10-04T04:23:32.728Z,5.80
2022-10-04T04:26:16.048Z,5.80
2022-10-04T04:28:49.219Z,5.80
2022-10-04T04:31:23.274Z,5.80
2022-10-04T04:34:00.490Z,5.80
2022-10-04T04:36:30.259Z,5.80
2022-10-04T04:39:26.443Z,5.80
2022-10-04T04:41:54.720Z,5.80
2022-10-04T04:44:24.722Z,5.80
2022-10-04T04:46:55.086Z,5.80
2022-10-04T04:49:23.891Z,5.80
2022-10-04T04:51:53.846Z,5.80
2022-10-04T04:54:24.891Z,5.90
2022-10-04T04:56:55.092Z,5.90
2022-10-04T04:59:27.794Z,5.90
2022-10-04T05:01:55.846Z,5.90
2022-10-04T05:04:24.985Z,6.00
2022-10-04T05:07:03.342Z,6.00
2022-10-04T05:09:34.210Z,6.00
2022-10-04T05:12:09.044Z,6.10
2022-10-04T05:14:46.177Z,6.20
2022-10-04T05:17:20.855Z,6.30
2022-10-04T05:19:49.158Z,6.40
2022-10-04T05:22:22.824Z,6.40
2022-10-04T05:24:56.613Z,6.50
2022-10-04T05:27:31.727Z,6.50
2022-10-04T05:30:07.283Z,6.50
2022-10-04T05:32:44.939Z,6.50
2022-10-04T05:35:18.774Z,6.50
2022-10-04T05:37:55.605Z,6.50
2022-10-04T05:40:33.204Z,6.50
2022-10-04T05:43:01.231Z,6.50
2022-10-04T05:45:32.819Z,6.50
2022-10-04T05:48:03.516Z,6.50
2022-10-04T05:50:35.150Z,6.50
2022-10-04T05:53:22.725Z,6.50
2022-10-04T05:56:14.215Z,6.50
2022-10-04T05:58:57.696Z,6.50
2022-10-04T06:01:38.713Z,6.50
2022-10-04T06:04:22.196Z,6.60
2022-10-04T06:06:55.551Z,6.60
2022-10-04T06:09:48.376Z,6.70
2022-10-04T06:12:30.227Z,6.70
2022-10-04T06:15:24.986Z,6.70
2022-10-04T06:18:33.328Z,6.70
2022-10-04T06:21:20.564Z,6.70
2022-10-04T06:23:57.508Z,6.70
2022-10-04T06:26:31.765Z,6.70
2022-10-04T06:29:02.143Z,6.80
2022-10-04T06:31:57.300Z,6.80
2022-10-04T06:35:06.327Z,6.80
2022-10-04T06:37:50.701Z,6.90
2022-10-04T06:40:44.071Z,7.00
2022-10-04T06:43:37.697Z,7.10
2022-10-04T06:46:08.746Z,7.10
2022-10-04T06:49:10.251Z,7.30
2022-10-04T06:51:59.952Z,7.40
2022-10-04T06:54:49.008Z,7.40
2022-10-04T06:57:47.726Z,7.50
2022-10-04T07:00:20.017Z,7.60
2022-10-04T07:02:51.133Z,7.50
2022-10-04T07:05:30.553Z,7.50
2022-10-04T07:08:08.836Z,7.60
2022-10-04T07:10:51.019Z,7.60
2022-10-04T07:13:33.230Z,7.70
2022-10-04T07:16:07.947Z,7.70
2022-10-04T07:18:44.212Z,7.80
2022-10-04T07:21:16.459Z,7.90
2022-10-04T07:23:53.297Z,8.00
2022-10-04T07:26:27.725Z,8.10
2022-10-04T07:29:20.904Z,8.20
2022-10-04T07:31:53.995Z,8.30
2022-10-04T07:34:23.852Z,8.50
2022-10-04T07:36:55.248Z,8.60
2022-10-04T07:39:28.901Z,8.80
2022-10-04T07:41:58.814Z,8.90
2022-10-04T07:44:36.121Z,8.90
2022-10-04T07:47:14.654Z,9.00
2022-10-04T07:49:44.691Z,9.10
2022-10-04T07:52:48.154Z,9.10
2022-10-04T07:55:25.247Z,9.30
2022-10-04T07:58:08.472Z,9.40
2022-10-04T08:00:49.540Z,9.60
2022-10-04T08:03:38.735Z,9.70
2022-10-04T08:06:12.896Z,9.80
2022-10-04T08:09:10.302Z,9.90
2022-10-04T08:11:50.558Z,10.10
2022-10-04T08:14:28.900Z,10.20
2022-10-04T08:17:15.644Z,10.40
2022-10-04T08:20:00.978Z,10.60
2022-10-04T08:22:41.366Z,10.80
2022-10-04T08:25:19.810Z,10.90
2022-10-04T08:28:16.376Z,11.10
2022-10-04T08:30:59.914Z,11.20
2022-10-04T08:33:45.132Z,11.30
2022-10-04T08:36:25.741Z,11.30
2022-10-04T08:38:59.022Z,11.40
2022-10-04T08:42:11.928Z,11.50
2022-10-04T08:45:22.137Z,11.50
2022-10-04T08:48:24.813Z,11.60
2022-10-04T08:51:25.667Z,11.80
2022-10-04T08:54:30.400Z,11.80
2022-10-04T08:57:37.034Z,11.80
2022-10-04T09:00:15.650Z,11.90
2022-10-04T09:03:24.727Z,11.90
2022-10-04T09:06:00.716Z,12.00
2022-10-04T09:09:20.104Z,12.10
2022-10-04T09:12:03.633Z,12.10
2022-10-04T09:14:51.819Z,12.20
2022-10-04T09:17:33.417Z,12.40
2022-10-04T09:20:36.752Z,12.50
2022-10-04T09:23:13.483Z,12.60
2022-10-04T09:25:53.841Z,12.60
2022-10-04T09:28:49.168Z,12.60
2022-10-04T09:32:00.516Z,12.60
2022-10-04T09:34:41.872Z,12.80
2022-10-04T09:37:34.344Z,12.70
2022-10-04T09:40:42.383Z,12.70
2022-10-04T09:43:37.873Z,12.80
2022-10-04T09:46:19.306Z,12.90
2022-10-04T09:48:59.901Z,13.00
2022-10-04T09:51:59.467Z,13.30
2022-10-04T09:54:59.233Z,13.50
2022-10-04T09:57:45.617Z,13.50
2022-10-04T10:00:23.827Z,13.80
2022-10-04T10:03:13.428Z,14.00
2022-10-04T10:06:08.499Z,14.00
2022-10-04T10:08:48.185Z,14.10
2022-10-04T10:11:46.216Z,14.50
2022-10-04T10:14:33.726Z,14.60
2022-10-04T10:17:15.258Z,14.50
2022-10-04T10:20:26.960Z,14.70
2022-10-04T10:23:20.511Z,14.80
2022-10-04T10:25:56.171Z,15.00
2022-10-04T10:28:49.038Z,15.10
2022-10-04T10:31:48.123Z,15.20
2022-10-04T10:34:52.810Z,15.30
2022-10-04T10:37:35.797Z,15.20
2022-10-04T10:40:28.979Z,15.30
2022-10-04T10:43:26.200Z,15.50
2022-10-04T10:46:23.695Z,15.60
2022-10-04T10:49:27.151Z,15.80
2022-10-04T10:52:30.681Z,16.20
2022-10-04T10:55:36.737Z,16.20
2022-10-04T10:58:53.119Z,16.50
2022-10-04T11:02:01.566Z,16.60
2022-10-04T11:04:49.973Z,16.60
2022-10-04T11:07:52.646Z,16.60
2022-10-04T11:11:00.162Z,16.60
2022-10-04T11:14:02.462Z,16.80
2022-10-04T11:17:09.655Z,17.10
2022-10-04T11:20:07.272Z,16.70
2022-10-04T11:23:30.856Z,16.50
2022-10-04T11:26:20.173Z,16.60
2022-10-04T11:28:56.663Z,16.90
2022-10-04T11:31:55.107Z,17.10
2022-10-04T11:34:59.880Z,17.10
2022-10-04T11:37:52.152Z,17.40
2022-10-04T11:40:35.060Z,17.50
2022-10-04T11:43:32.082Z,17.50
2022-10-04T11:46:14.699Z,17.50
2022-10-04T11:48:56.627Z,17.50
2022-10-04T11:51:51.799Z,17.40
2022-10-04T11:54:49.739Z,17.60
2022-10-04T11:57:37.735Z,17.60
2022-10-04T12:00:17.253Z,17.50
2022-10-04T12:03:07.894Z,17.70
2022-10-04T12:05:53.722Z,17.80
2022-10-04T12:08:33.226Z,17.90
2022-10-04T12:11:53.925Z,17.90
2022-10-04T12:14:41.044Z,17.60
2022-10-04T12:18:08.158Z,17.90
2022-10-04T12:21:04.926Z,18.10
2022-10-04T12:24:04.470Z,18.40
2022-10-04T12:27:18.084Z,18.50
2022-10-04T12:30:11.629Z,18.50
2022-10-04T12:32:43.592Z,18.60
2022-10-04T12:35:26.457Z,18.80
2022-10-04T12:38:32.028Z,18.80
2022-10-04T12:41:12.158Z,18.90
2022-10-04T12:43:51.586Z,18.60
2022-10-04T12:46:33.242Z,18.70
2022-10-04T12:49:11.161Z,18.90
2022-10-04T12:51:54.269Z,19.20
2022-10-04T12:54:37.058Z,19.20
2022-10-04T12:57:31.166Z,19.30
2022-10-04T13:00:14.367Z,19.30
2022-10-04T13:02:57.389Z,19.30
2022-10-04T13:05:32.144Z,19.50
2022-10-04T13:08:15.003Z,19.70
2022-10-04T13:11:10.688Z,19.90
2022-10-04T13:14:14.810Z,19.70
2022-10-04T13:19:50.456Z,19.30
2022-10-04T13:22:51.726Z,19.10
2022-10-04T13:25:28.490Z,19.20
2022-10-04T13:28:03.079Z,19.30
2022-10-04T13:30:38.762Z,19.60
2022-10-04T13:33:22.053Z,19.80
2022-10-04T13:35:54.204Z,19.80
2022-10-04T13:38:46.914Z,20.00
2022-10-04T13:41:24.438Z,20.20
2022-10-04T13:44:09.288Z,20.30
2022-10-04T13:46:47.824Z,20.40
2022-10-04T13:49:32.329Z,20.50
2022-10-04T13:52:30.383Z,20.50
2022-10-04T13:55:31.855Z,20.60
2022-10-04T13:58:13.442Z,20.80
2022-10-04T14:01:15.535Z,21.00
2022-10-04T14:03:59.720Z,21.10
2022-10-04T14:06:54.316Z,20.90
2022-10-04T14:09:55.120Z,21.10
2022-10-04T14:12:55.704Z,21.00
2022-10-04T14:16:04.583Z,21.30
2022-10-04T14:18:54.348Z,21.80
2022-10-04T14:22:04.593Z,22.40
2022-10-04T14:25:23.865Z,22.70
2022-10-04T14:28:27.859Z,22.60
2022-10-04T14:31:21.106Z,22.90
2022-10-04T14:34:23.741Z,23.00
2022-10-04T14:37:15.524Z,22.60
2022-10-04T14:40:01.041Z,23.10
2022-10-04T14:43:04.998Z,23.40
2022-10-04T14:45:45.663Z,23.40
2022-10-04T14:48:38.018Z,23.70
2022-10-04T14:51:26.909Z,24.20
2022-10-04T14:54:04.334Z,24.20
2022-10-04T14:56:47.652Z,23.30
2022-10-04T14:59:43.002Z,23.40
2022-10-04T15:02:36.783Z,23.30
2022-10-04T15:05:51.919Z,23.90
2022-10-04T15:08:39.712Z,24.40
2022-10-04T15:11:11.680Z,24.30
2022-10-04T15:13:55.914Z,23.80
2022-10-04T15:16:38.767Z,24.10
2022-10-04T15:19:10.917Z,24.30
2022-10-04T15:22:05.548Z,23.40
2022-10-04T15:24:47.852Z,23.10
2022-10-04T15:27:43.018Z,22.80
2022-10-04T15:30:21.337Z,23.10
2022-10-04T15:32:56.505Z,23.10
2022-10-04T15:35:35.162Z,22.70
2022-10-04T15:38:22.725Z,23.10
2022-10-04T15:41:04.557Z,23.30
2022-10-04T15:43:39.267Z,22.60
2022-10-04T15:46:45.044Z,22.00
2022-10-04T15:49:41.195Z,21.40
2022-10-04T15:52:41.094Z,21.00
2022-10-04T15:55:21.415Z,20.60
2022-10-04T15:58:21.115Z,20.30
2022-10-04T16:01:01.583Z,19.90
2022-10-04T16:03:47.621Z,19.70
2022-10-04T16:06:23.947Z,19.50
2022-10-04T16:09:14.163Z,19.20
2022-10-04T16:12:08.786Z,18.90
2022-10-04T16:14:56.510Z,18.70
2022-10-04T16:17:45.334Z,18.50
2022-10-04T16:20:50.611Z,18.40
2022-10-04T16:23:45.842Z,18.20
2022-10-04T16:26:34.933Z,18.10
2022-10-04T16:29:18.416Z,17.90
2022-10-04T16:32:05.104Z,17.80
2022-10-04T16:34:48.383Z,17.60
2022-10-04T16:37:20.094Z,17.40
2022-10-04T16:40:03.175Z,17.30
2022-10-04T16:42:43.280Z,17.10
2022-10-04T16:45:49.278Z,16.90
2022-10-04T16:48:35.577Z,16.80
2022-10-04T16:51:35.039Z,16.70
2022-10-04T16:54:17.401Z,16.60
2022-10-04T16:57:14.259Z,16.40
2022-10-04T16:59:57.704Z,16.20
2022-10-04T17:02:46.567Z,16.00
2022-10-04T17:05:53.322Z,15.90
2022-10-04T17:08:47.295Z,15.80
2022-10-04T17:11:46.846Z,15.60
2022-10-04T17:14:51.160Z,15.50
2022-10-04T17:17:27.158Z,15.30
2022-10-04T17:20:04.019Z,15.20
2022-10-04T17:22:44.736Z,15.10
2022-10-04T17:25:30.286Z,15.00
2022-10-04T17:28:05.647Z,14.90
2022-10-04T17:30:47.224Z,14.80
2022-10-04T17:33:30.869Z,14.70
2022-10-04T17:36:35.772Z,14.60
2022-10-04T17:39:27.590Z,14.50
2022-10-04T17:42:24.801Z,14.40
2022-10-04T17:45:42.500Z,14.30
2022-10-04T17:48:33.737Z,14.20
2022-10-04T17:51:38.225Z,14.10
2022-10-04T17:54:34.126Z,14.00
2022-10-04T17:57:16.097Z,13.90
2022-10-04T17:59:47.347Z,13.80
2022-10-04T18:02:22.435Z,13.70
2022-10-04T18:04:55.413Z,13.70
2022-10-04T18:07:27.075Z,13.60
2022-10-04T18:10:00.807Z,13.50
2022-10-04T18:12:33.268Z,13.40
2022-10-04T18:15:07.864Z,13.40
2022-10-04T18:17:39.905Z,13.30
2022-10-04T18:20:27.975Z,13.20
2022-10-04T18:23:02.210Z,13.10
2022-10-04T18:25:34.274Z,13.00
2022-10-04T18:28:06.990Z,13.00
2022-10-04T18:30:52.458Z,12.90
2022-10-04T18:33:26.665Z,12.90
2022-10-04T18:36:05.536Z,12.80
2022-10-04T18:38:35.712Z,12.70
2022-10-04T18:41:19.034Z,12.70
2022-10-04T18:43:53.113Z,12.60
2022-10-04T18:46:22.748Z,12.50
2022-10-04T18:48:56.200Z,12.50
2022-10-04T18:51:31.801Z,12.40
2022-10-04T18:54:15.355Z,12.40
2022-10-04T18:56:57.543Z,12.30
2022-10-04T19:00:08.676Z,12.30
2022-10-04T19:02:42.491Z,12.20
2022-10-04T19:05:21.860Z,12.10
2022-10-04T19:07:58.538Z,12.10
2022-10-04T19:10:33.844Z,12.10
2022-10-04T19:13:17.366Z,12.10
2022-10-04T19:16:01.566Z,12.10
2022-10-04T19:18:54.312Z,12.00
2022-10-04T19:21:32.449Z,11.90
2022-10-04T19:24:34.338Z,11.80
2022-10-04T19:27:06.364Z,11.80
2022-10-04T19:29:55.771Z,11.70
2022-10-04T19:32:37.440Z,11.60
2022-10-04T19:35:15.758Z,11.60
2022-10-04T19:37:53.954Z,11.50
2022-10-04T19:40:29.745Z,11.50
2022-10-04T19:43:07.400Z,11.50
2022-10-04T19:45:43.946Z,11.40
2022-10-04T19:48:24.174Z,11.30
2022-10-04T19:51:03.756Z,11.30
2022-10-04T19:53:42.195Z,11.20
2022-10-04T19:56:19.274Z,11.20
2022-10-04T19:58:58.568Z,11.10
2022-10-04T20:01:29.621Z,11.00
2022-10-04T20:04:24.456Z,11.00
2022-10-04T20:06:55.925Z,11.00
2022-10-04T20:09:33.125Z,11.00
2022-10-04T20:12:05.581Z,10.90
2022-10-04T20:15:12.994Z,10.80
2022-10-04T20:17:44.334Z,10.80
2022-10-04T20:20:16.777Z,10.80
2022-10-04T20:23:01.752Z,10.70
2022-10-04T20:26:02.067Z,10.70
2022-10-04T20:28:44.360Z,10.70
2022-10-04T20:31:28.502Z,10.70
2022-10-04T20:34:33.897Z,10.70
2022-10-04T20:37:03.554Z,10.60
2022-10-04T20:40:03.852Z,10.60
2022-10-04T20:42:36.910Z,10.60
2022-10-04T20:45:19.940Z,10.50
2022-10-04T20:47:50.693Z,10.50
2022-10-04T20:50:34.040Z,10.50
2022-10-04T20:53:04.335Z,10.40
2022-10-04T20:55:34.358Z,10.40
2022-10-04T20:58:04.678Z,10.30
2022-10-04T21:00:35.003Z,10.30
2022-10-04T21:03:12.040Z,10.30
2022-10-04T21:05:42.767Z,10.20
2022-10-04T21:08:25.054Z,10.20
2022-10-04T21:11:21.118Z,10.20
2022-10-04T21:13:55.059Z,10.10
2022-10-04T21:16:40.954Z,10.10
2022-10-04T21:19:33.805Z,10.10
2022-10-04T21:22:05.137Z,10.10
2022-10-04T21:24:38.420Z,10.00
2022-10-04T21:27:08.778Z,10.00
2022-10-04T21:29:37.684Z,10.00
2022-10-04T21:32:08.878Z,9.90
2022-10-04T21:34:52.910Z,9.90
2022-10-04T21:37:23.726Z,9.90
2022-10-04T21:39:52.861Z,9.90
2022-10-04T21:42:21.576Z,9.80
2022-10-04T21:44:50.394Z,9.90
2022-10-04T21:47:21.545Z,9.90
2022-10-04T21:49:49.888Z,9.90
2022-10-04T21:52:19.488Z,9.90
2022-10-04T21:54:52.301Z,9.80
2022-10-04T21:57:22.159Z,9.80
2022-10-04T21:59:53.273Z,9.70
2022-10-04T22:02:21.526Z,9.70
2022-10-04T22:04:49.622Z,9.70
2022-10-04T22:07:17.899Z,9.60
2022-10-04T22:09:52.493Z,9.60
2022-10-04T22:12:22.094Z,9.60
2022-10-04T22:14:50.189Z,9.70
2022-10-04T22:17:18.543Z,9.70
2022-10-04T22:19:46.911Z,9.70
2022-10-04T22:22:17.085Z,9.70
2022-10-04T22:24:45.459Z,9.80
2022-10-04T22:27:18.182Z,9.80
2022-10-04T22:29:46.710Z,9.80
2022-10-04T22:32:22.944Z,9.80
2022-10-04T22:34:51.424Z,9.80
2022-10-04T22:37:23.943Z,9.80
2022-10-04T22:39:52.820Z,9.80
2022-10-04T22:42:27.283Z,9.80
2022-10-04T22:44:55.259Z,9.90
2022-10-04T22:47:24.167Z,9.90
2022-10-04T22:49:54.451Z,9.90
2022-10-04T22:52:24.559Z,10.00
2022-10-04T22:54:54.592Z,10.00
2022-10-04T22:57:26.679Z,10.00
2022-10-04T22:59:55.067Z,10.00
2022-10-04T23:02:27.228Z,10.00
2022-10-04T23:04:58.524Z,10.00
2022-10-04T23:07:27.593Z,10.00
2022-10-04T23:09:55.646Z,10.00
2022-10-04T23:12:25.320Z,10.00
2022-10-04T23:14:55.905Z,10.00
2022-10-04T23:17:26.588Z,10.00
2022-10-04T23:19:57.701Z,10.00
2022-10-04T23:22:29.596Z,10.00
2022-10-04T23:24:58.279Z,10.00
2022-10-04T23:27:29.918Z,10.00
2022-10-04T23:30:04.256Z,10.00
2022-10-04T23:32:33.647Z,10.00
2022-10-04T23:35:05.177Z,10.00
2022-10-04T23:37:37.165Z,10.00
2022-10-04T23:40:11.223Z,10.00
2022-10-04T23:42:42.433Z,9.90
2022-10-04T23:45:19.846Z,9.90
2022-10-04T23:47:50.676Z,9.90
2022-10-04T23:50:25.578Z,9.80
2022-10-04T23:52:58.129Z,9.80
2022-10-04T23:55:32.873Z,9.80
2022-10-04T23:58:14.561Z,9.80
